Time;durP1;ratioP1;P1;durP2;ratioP2;P2;SDS_P1;SDS_P2;PMS_P1;PMS_P2;Temp;Humidity;BMP_temperature;BMP_pressure;BME280_temperature;BME280_humidity;BME280_pressure;Samples;Min_cycle;Max_cycle;Signal;HPM_P1;HPM_P2
2021/11/10 00:01:21;;;;;;;15.52;9.07;;;23.20;94.20;;;;;;4187735;28;20033;-68
2021/11/10 00:03:26;;;;;;;14.10;8.82;;;23.30;94.00;;;;;;4206368;28;20036;-68
2021/11/10 00:05:30;;;;;;;14.80;8.57;;;23.30;93.90;;;;;;4203258;28;20052;-68
2021/11/10 00:07:35;;;;;;;14.45;8.73;;;23.30;94.00;;;;;;4206793;28;20502;-68
2021/11/10 00:09:39;;;;;;;13.73;8.63;;;23.50;93.50;;;;;;4208235;28;20526;-68
2021/11/10 00:11:44;;;;;;;13.30;9.50;;;23.70;93.10;;;;;;4210705;28;20105;-68
2021/11/10 00:13:48;;;;;;;14.45;8.70;;;23.80;92.80;;;;;;4204875;28;20095;-68
2021/11/10 00:15:53;;;;;;;12.75;8.45;;;23.90;92.10;;;;;;4208302;28;20109;-68
2021/11/10 00:17:57;;;;;;;14.75;8.63;;;24.00;92.20;;;;;;4205316;28;20044;-67
2021/11/10 00:20:02;;;;;;;12.02;7.57;;;24.10;92.20;;;;;;4206925;28;20429;-67
2021/11/10 00:22:07;;;;;;;16.02;8.18;;;24.10;91.90;;;;;;4208016;28;20036;-68
2021/11/10 00:24:11;;;;;;;11.60;8.18;;;24.10;91.70;;;;;;4212759;28;20040;-67
2021/11/10 00:26:16;;;;;;;9.45;7.57;;;24.10;91.80;;;;;;4192029;28;20451;-68
2021/11/10 00:28:20;;;;;;;14.10;6.57;;;24.10;91.50;;;;;;4191111;28;20560;-66
2021/11/10 00:30:27;;;;;;;9.45;7.00;;;24.10;91.10;;;;;;4173718;28;20601;-67
2021/11/10 00:32:32;;;;;;;8.60;5.88;;;24.00;91.30;;;;;;4203844;28;20242;-67
2021/11/10 00:34:38;;;;;;;8.85;6.10;;;24.10;91.20;;;;;;4199127;28;20695;-68
2021/11/10 00:36:44;;;;;;;8.70;5.88;;;24.10;90.70;;;;;;4195770;28;20591;-67
2021/11/10 00:38:51;;;;;;;10.65;5.70;;;23.80;90.90;;;;;;4182775;28;20037;-68
2021/11/10 00:40:57;;;;;;;8.15;5.70;;;23.90;91.00;;;;;;4203811;28;20040;-68
2021/11/10 00:43:01;;;;;;;9.32;6.05;;;24.00;90.80;;;;;;4184459;28;20083;-68
2021/11/10 00:45:07;;;;;;;9.13;5.85;;;24.00;90.80;;;;;;4199897;28;20052;-68
2021/11/10 00:47:12;;;;;;;8.60;6.03;;;24.00;91.00;;;;;;4193661;28;20525;-68
2021/11/10 00:49:16;;;;;;;7.60;6.32;;;24.00;90.80;;;;;;4196468;28;20449;-69
2021/11/10 00:51:21;;;;;;;7.43;5.40;;;24.10;91.00;;;;;;4201361;28;20055;-68
2021/11/10 00:53:25;;;;;;;10.05;6.70;;;24.10;90.80;;;;;;4201753;28;20044;-68
2021/11/10 00:55:30;;;;;;;10.25;5.90;;;24.10;90.80;;;;;;4199951;28;20049;-68
2021/11/10 00:57:34;;;;;;;8.57;6.13;;;24.10;90.90;;;;;;4188491;28;20049;-67
2021/11/10 00:59:39;;;;;;;10.02;6.30;;;24.20;90.90;;;;;;4197320;28;20510;-67
2021/11/10 01:01:43;;;;;;;10.05;6.40;;;24.20;90.90;;;;;;4181768;28;20060;-67
2021/11/10 01:03:52;;;;;;;10.70;6.43;;;24.30;90.80;;;;;;4201789;28;20045;-68
2021/11/10 01:05:58;;;;;;;13.02;7.47;;;24.40;90.70;;;;;;4201923;28;20040;-67
2021/11/10 01:08:03;;;;;;;9.70;6.72;;;24.40;90.70;;;;;;4189954;28;20045;-67
2021/11/10 01:10:09;;;;;;;17.67;9.52;;;24.50;90.80;;;;;;4198212;28;20076;-67
2021/11/10 01:12:14;;;;;;;12.07;7.20;;;24.50;90.80;;;;;;4197457;28;20068;-67
2021/11/10 01:14:20;;;;;;;7.28;5.68;;;24.50;90.50;;;;;;4188779;28;20055;-67
2021/11/10 01:16:25;;;;;;;8.20;6.15;;;24.20;90.50;;;;;;4196074;28;20044;-68
2021/11/10 01:18:32;;;;;;;7.95;6.07;;;24.10;90.40;;;;;;4179426;28;20166;-68
2021/11/10 01:20:42;;;;;;;8.05;5.15;;;24.20;90.60;;;;;;4183691;28;20048;-68
2021/11/10 01:22:46;;;;;;;10.02;5.70;;;24.10;90.10;;;;;;4185947;28;20314;-69
2021/11/10 01:24:52;;;;;;;6.15;5.25;;;24.00;90.20;;;;;;4198711;28;20142;-68
2021/11/10 01:26:57;;;;;;;9.80;5.72;;;24.10;90.50;;;;;;4181226;28;20045;-68
2021/11/10 01:29:02;;;;;;;7.88;5.53;;;24.10;90.20;;;;;;4161158;28;20047;-68
2021/11/10 01:31:08;;;;;;;13.32;6.55;;;24.00;90.40;;;;;;4184107;28;20106;-68
2021/11/10 01:33:13;;;;;;;12.82;5.70;;;24.30;90.80;;;;;;4186311;28;20048;-68
2021/11/10 01:35:18;;;;;;;10.85;6.05;;;24.40;90.30;;;;;;4184079;28;20231;-68
2021/11/10 01:37:24;;;;;;;9.57;6.05;;;24.50;90.30;;;;;;4184579;28;20118;-69
2021/11/10 01:39:29;;;;;;;10.45;5.53;;;24.40;90.20;;;;;;4194435;28;20060;-68
2021/11/10 01:41:46;;;;;;;8.70;5.82;;;24.40;90.30;;;;;;4179734;28;20049;-68
2021/11/10 01:43:52;;;;;;;11.23;6.85;;;24.60;90.20;;;;;;4167715;28;20045;-70
2021/11/10 01:45:58;;;;;;;11.25;6.25;;;24.70;90.20;;;;;;4193013;28;20109;-68
2021/11/10 01:48:06;;;;;;;8.48;5.78;;;24.70;89.50;;;;;;4173404;28;20044;-68
2021/11/10 01:50:16;;;;;;;6.65;5.00;;;24.40;90.20;;;;;;4201687;28;20186;-67
2021/11/10 01:52:20;;;;;;;7.80;5.63;;;24.40;89.80;;;;;;4182561;28;20775;-68
2021/11/10 01:54:29;;;;;;;8.45;5.43;;;24.40;89.40;;;;;;4187771;28;20045;-68
2021/11/10 01:56:35;;;;;;;10.00;5.70;;;24.60;88.80;;;;;;4185784;28;20052;-67
2021/11/10 01:58:40;;;;;;;11.18;5.10;;;24.60;89.40;;;;;;4175556;28;20091;-69
2021/11/10 02:00:45;;;;;;;17.52;5.45;;;24.80;88.70;;;;;;4182411;28;20523;-69
2021/11/10 02:02:51;;;;;;;68.30;7.55;;;24.70;88.30;;;;;;4181095;28;20564;-66
2021/11/10 02:05:16;;;;;;;27.70;6.72;;;24.70;88.70;;;;;;4199666;28;20044;-67
2021/11/10 02:07:21;;;;;;;19.77;5.90;;;24.90;88.90;;;;;;4177637;28;20048;-67
2021/11/10 02:09:26;;;;;;;9.25;4.82;;;25.00;88.90;;;;;;4196602;28;20052;-68
2021/11/10 02:11:33;;;;;;;8.77;4.55;;;24.90;88.00;;;;;;4178807;28;20146;-70
2021/11/10 02:13:46;;;;;;;10.07;4.63;;;25.00;87.90;;;;;;4180611;28;20475;-70
2021/11/10 02:15:54;;;;;;;5.97;4.53;;;25.10;87.80;;;;;;4183550;28;20484;-68
2021/11/10 02:18:02;;;;;;;7.18;4.60;;;25.10;87.30;;;;;;4177305;28;20047;-69
2021/11/10 02:20:11;;;;;;;8.20;5.30;;;25.10;87.30;;;;;;4182877;28;20036;-69
2021/11/10 02:22:19;;;;;;;8.63;4.70;;;25.20;87.20;;;;;;4182770;28;20379;-68
2021/11/10 02:24:25;;;;;;;7.25;4.78;;;25.30;87.50;;;;;;4198053;28;20051;-67
2021/11/10 02:26:30;;;;;;;9.65;5.20;;;25.40;87.50;;;;;;4195017;28;20613;-68
2021/11/10 02:28:38;;;;;;;11.57;5.88;;;25.40;87.60;;;;;;4175640;28;20041;-69
2021/11/10 02:30:44;;;;;;;21.75;7.93;;;25.50;87.50;;;;;;4182225;28;20593;-69
2021/11/10 02:32:50;;;;;;;11.57;5.60;;;25.50;87.50;;;;;;4196624;28;20536;-68
2021/11/10 02:34:54;;;;;;;7.78;4.53;;;25.60;87.80;;;;;;4200123;28;20518;-68
2021/11/10 02:37:02;;;;;;;8.60;5.15;;;25.60;86.20;;;;;;4180061;28;20041;-69
2021/11/10 02:39:09;;;;;;;12.60;5.30;;;25.50;86.90;;;;;;4195648;28;20087;-69
2021/11/10 02:41:13;;;;;;;9.18;5.55;;;25.60;87.20;;;;;;4181120;28;20136;-68
2021/11/10 02:43:18;;;;;;;11.32;5.75;;;25.70;87.70;;;;;;4200513;28;20607;-67
2021/11/10 02:45:22;;;;;;;7.53;4.82;;;25.70;87.20;;;;;;4200354;28;20040;-67
2021/11/10 02:47:28;;;;;;;11.13;4.97;;;25.80;86.60;;;;;;4191675;28;20048;-70
2021/11/10 02:49:33;;;;;;;9.88;5.10;;;25.80;86.80;;;;;;4194917;28;20486;-69
2021/11/10 02:52:03;;;;;;;8.25;4.93;;;25.80;86.60;;;;;;4180995;28;20045;-70
2021/11/10 02:54:08;;;;;;;6.65;4.63;;;25.80;85.80;;;;;;4188686;28;20102;-68
2021/11/10 02:56:13;;;;;;;14.15;5.20;;;25.80;85.60;;;;;;4182431;28;20049;-67
2021/11/10 02:58:18;;;;;;;9.50;4.93;;;25.90;86.90;;;;;;4160620;28;20051;-68
2021/11/10 03:00:30;;;;;;;7.40;4.63;;;25.70;85.70;;;;;;4199336;28;20064;-68
2021/11/10 03:02:37;;;;;;;5.28;4.57;;;25.90;87.00;;;;;;4181126;28;20449;-67
2021/11/10 03:04:46;;;;;;;13.38;4.88;;;25.90;85.90;;;;;;4166629;28;20061;-67
2021/11/10 03:06:52;;;;;;;10.73;4.65;;;25.90;86.00;;;;;;4179576;28;20132;-66
2021/11/10 03:08:58;;;;;;;7.85;4.53;;;26.10;86.00;;;;;;4176082;28;20060;-68
2021/11/10 03:11:10;;;;;;;6.03;4.30;;;26.10;85.50;;;;;;4199303;28;20556;-67
2021/11/10 03:13:16;;;;;;;8.27;5.05;;;26.10;85.20;;;;;;4183224;28;20044;-68
2021/11/10 03:15:22;;;;;;;7.38;4.85;;;26.00;85.00;;;;;;4178604;28;20069;-68
2021/11/10 03:17:26;;;;;;;17.70;5.15;;;26.10;85.80;;;;;;4174876;28;20084;-67
2021/11/10 03:19:34;;;;;;;8.70;4.97;;;26.10;85.80;;;;;;4163808;28;20044;-68
2021/11/10 03:21:41;;;;;;;12.10;5.57;;;26.30;85.70;;;;;;4182839;28;20040;-68
2021/11/10 03:23:46;;;;;;;8.60;4.07;;;26.30;85.20;;;;;;4182989;28;20037;-68
2021/11/10 03:25:51;;;;;;;10.75;4.72;;;26.30;84.00;;;;;;4181374;28;20048;-68
2021/11/10 03:27:59;;;;;;;15.75;5.45;;;26.30;84.20;;;;;;4170740;28;20569;-69
2021/11/10 03:30:05;;;;;;;11.05;5.35;;;26.30;84.20;;;;;;4181242;28;20041;-69
2021/11/10 03:32:28;;;;;;;14.55;5.65;;;26.40;84.70;;;;;;4177104;28;20051;-68
2021/11/10 03:34:34;;;;;;;6.70;4.20;;;26.40;85.00;;;;;;4201656;28;20425;-68
2021/11/10 03:36:40;;;;;;;9.82;4.97;;;26.50;84.00;;;;;;4193904;28;20044;-68
2021/11/10 03:38:44;;;;;;;8.63;4.35;;;26.40;84.40;;;;;;4199198;28;20048;-68
2021/11/10 03:40:53;;;;;;;6.50;4.10;;;26.50;84.30;;;;;;4177561;28;20049;-68
2021/11/10 03:43:05;;;;;;;11.57;4.70;;;26.40;83.90;;;;;;4183917;28;20132;-68
2021/11/10 03:45:10;;;;;;;13.95;4.60;;;26.50;83.90;;;;;;4201018;28;20032;-67
2021/11/10 03:47:16;;;;;;;17.05;5.28;;;26.60;83.40;;;;;;4174212;28;20514;-68
2021/11/10 03:49:21;;;;;;;31.33;6.72;;;26.60;83.10;;;;;;4196933;28;20052;-67
2021/11/10 03:51:27;;;;;;;40.95;6.45;;;26.60;83.20;;;;;;4179793;28;20476;-68
2021/11/10 03:53:31;;;;;;;16.33;4.13;;;26.70;82.70;;;;;;4182057;28;20075;-69
2021/11/10 03:55:36;;;;;;;12.52;4.50;;;26.70;82.40;;;;;;4180494;28;20300;-68
2021/11/10 03:57:42;;;;;;;23.88;5.65;;;26.70;82.60;;;;;;4191336;28;20437;-67
2021/11/10 03:59:47;;;;;;;15.68;5.07;;;26.80;82.50;;;;;;4201998;28;20052;-67
2021/11/10 04:01:52;;;;;;;8.80;4.40;;;26.80;82.80;;;;;;4183189;28;20047;-68
2021/11/10 04:03:57;;;;;;;14.70;5.13;;;26.80;82.60;;;;;;4179569;28;20178;-68
2021/11/10 04:06:01;;;;;;;10.98;4.97;;;26.90;82.70;;;;;;4197220;28;20039;-68
2021/11/10 04:08:09;;;;;;;11.27;5.65;;;27.00;82.80;;;;;;4175023;28;20502;-68
2021/11/10 04:10:15;;;;;;;9.82;5.05;;;27.00;82.20;;;;;;4184119;28;20075;-68
2021/11/10 04:12:20;;;;;;;9.95;4.50;;;27.10;82.30;;;;;;4182314;28;20045;-69
2021/11/10 04:14:25;;;;;;;13.77;3.95;;;27.10;82.60;;;;;;4202654;28;20055;-69
2021/11/10 04:16:31;;;;;;;21.85;5.28;;;27.10;82.60;;;;;;4180802;28;20644;-69
2021/11/10 04:18:36;;;;;;;13.63;4.57;;;27.10;81.80;;;;;;4200118;28;20557;-66
2021/11/10 04:20:53;;;;;;;15.18;4.75;;;27.20;81.10;;;;;;4180321;28;20105;-68
2021/11/10 04:22:58;;;;;;;12.10;4.38;;;27.20;80.90;;;;;;4184317;28;20041;-69
2021/11/10 04:25:04;;;;;;;8.77;4.25;;;27.30;82.00;;;;;;4197971;28;20420;-69
2021/11/10 04:27:10;;;;;;;11.13;3.70;;;27.30;81.40;;;;;;4174769;28;20224;-68
2021/11/10 04:29:15;;;;;;;5.45;3.63;;;27.30;81.40;;;;;;4180887;28;20102;-68
2021/11/10 04:31:20;;;;;;;8.93;3.97;;;27.40;81.30;;;;;;4182212;28;20062;-69
2021/11/10 04:33:25;;;;;;;12.02;4.40;;;27.40;81.10;;;;;;4183375;28;20074;-68
2021/11/10 04:35:30;;;;;;;8.98;3.80;;;27.40;80.40;;;;;;4182998;28;20067;-67
2021/11/10 04:37:35;;;;;;;7.65;4.10;;;27.30;80.50;;;;;;4174779;28;20064;-68
2021/11/10 04:39:41;;;;;;;7.43;3.60;;;27.40;80.60;;;;;;4183409;28;20052;-68
2021/11/10 04:41:48;;;;;;;11.18;3.55;;;27.40;80.60;;;;;;4199466;28;20044;-67
2021/11/10 04:43:53;;;;;;;6.43;3.30;;;27.40;79.80;;;;;;4182155;28;20534;-68
2021/11/10 04:48:13;;;;;;;7.82;3.08;;;27.50;78.60;;;;;;4172657;28;20064;-68
2021/11/10 04:50:18;;;;;;;5.05;2.92;;;27.50;79.20;;;;;;4201715;28;20052;-68
2021/11/10 04:52:22;;;;;;;6.90;3.03;;;27.50;78.40;;;;;;4191654;28;20052;-68
2021/11/10 04:54:32;;;;;;;9.40;3.58;;;27.40;78.80;;;;;;4201712;28;20347;-68
2021/11/10 04:56:38;;;;;;;5.75;3.58;;;27.50;79.30;;;;;;4179094;28;20052;-69
2021/11/10 04:58:44;;;;;;;11.70;4.20;;;27.60;78.70;;;;;;4177288;28;20123;-69
2021/11/10 05:00:49;;;;;;;11.93;4.18;;;27.60;78.20;;;;;;4179810;28;20056;-68
2021/11/10 05:02:54;;;;;;;12.88;4.00;;;27.70;79.00;;;;;;4184029;28;20044;-69
2021/11/10 05:04:59;;;;;;;9.13;4.28;;;27.80;78.80;;;;;;4183183;28;20048;-69
2021/11/10 05:07:06;;;;;;;11.70;3.30;;;27.80;78.70;;;;;;4178404;28;20435;-69
2021/11/10 05:09:11;;;;;;;7.78;3.30;;;27.80;78.00;;;;;;4199770;28;20453;-68
2021/11/10 05:11:16;;;;;;;14.77;4.38;;;27.80;78.10;;;;;;4183348;28;20700;-68
2021/11/10 05:13:21;;;;;;;12.63;4.10;;;27.80;78.40;;;;;;4185850;28;20059;-68
2021/11/10 05:15:26;;;;;;;5.15;3.35;;;27.90;78.40;;;;;;4167586;28;20041;-69
2021/11/10 05:17:31;;;;;;;6.22;3.00;;;27.80;77.30;;;;;;4182654;28;20466;-68
2021/11/10 05:19:36;;;;;;;7.72;2.85;;;27.80;77.70;;;;;;4177305;28;20041;-68
2021/11/10 05:21:42;;;;;;;6.55;3.60;;;27.80;77.30;;;;;;4181904;28;20516;-69
2021/11/10 05:23:47;;;;;;;9.40;3.63;;;27.90;77.80;;;;;;4183709;28;20147;-69
2021/11/10 05:25:52;;;;;;;10.60;3.95;;;27.90;78.20;;;;;;4202715;28;20047;-69
2021/11/10 05:27:57;;;;;;;9.65;3.67;;;27.90;77.90;;;;;;4194598;28;20039;-68
2021/11/10 05:30:02;;;;;;;8.25;3.55;;;28.00;78.30;;;;;;4205624;28;20036;-68
2021/11/10 05:32:07;;;;;;;10.20;3.95;;;28.00;78.50;;;;;;4202081;28;20417;-67
2021/11/10 05:34:12;;;;;;;9.13;3.50;;;28.10;78.60;;;;;;4202786;28;20422;-69
2021/11/10 05:36:16;;;;;;;7.50;3.90;;;28.10;77.80;;;;;;4198864;28;20397;-69
2021/11/10 05:38:20;;;;;;;6.20;3.78;;;28.10;77.40;;;;;;4190992;28;20044;-70
2021/11/10 05:40:26;;;;;;;7.45;3.78;;;28.10;78.10;;;;;;4200991;28;20067;-70
2021/11/10 05:42:30;;;;;;;8.60;3.78;;;28.20;77.90;;;;;;4202122;28;20171;-69
2021/11/10 05:44:34;;;;;;;11.93;3.20;;;28.00;76.20;;;;;;4198287;28;20047;-68
2021/11/10 05:46:39;;;;;;;5.95;3.10;;;28.00;77.40;;;;;;4183596;28;20699;-69
2021/11/10 05:48:43;;;;;;;9.95;5.18;;;28.00;77.20;;;;;;4196024;28;20475;-68
2021/11/10 05:50:48;;;;;;;10.15;5.15;;;28.20;77.50;;;;;;4197389;28;20094;-68
2021/11/10 05:52:52;;;;;;;6.93;4.10;;;28.30;77.50;;;;;;4201050;28;20048;-68
2021/11/10 05:54:56;;;;;;;18.67;10.65;;;28.30;77.50;;;;;;4198427;28;20036;-69
2021/11/10 05:57:03;;;;;;;12.13;5.47;;;28.30;78.50;;;;;;4193083;28;20162;-68
2021/11/10 05:59:09;;;;;;;9.75;3.30;;;28.30;77.00;;;;;;4198784;28;20138;-69
2021/11/10 06:01:13;;;;;;;6.57;3.15;;;28.30;76.90;;;;;;4196951;28;20110;-68
2021/11/10 06:03:18;;;;;;;6.55;4.35;;;28.20;76.80;;;;;;4198868;28;20083;-68
2021/11/10 06:05:22;;;;;;;10.02;3.72;;;28.10;77.20;;;;;;4203207;28;20040;-69
2021/11/10 06:07:27;;;;;;;7.53;3.30;;;28.20;77.40;;;;;;4193170;28;20046;-68
2021/11/10 06:09:31;;;;;;;5.47;3.33;;;28.20;77.00;;;;;;4197298;28;20055;-69
2021/11/10 06:11:36;;;;;;;5.03;3.33;;;28.10;76.90;;;;;;4196841;28;20058;-70
2021/11/10 06:13:41;;;;;;;8.25;3.67;;;28.20;77.40;;;;;;4201031;28;20053;-69
2021/11/10 06:15:45;;;;;;;7.25;3.80;;;28.30;77.50;;;;;;4182044;28;20079;-69
2021/11/10 06:17:50;;;;;;;9.38;3.85;;;28.40;77.70;;;;;;4189606;28;20789;-69
2021/11/10 06:19:54;;;;;;;6.97;3.35;;;28.30;77.40;;;;;;4200037;28;20380;-69
2021/11/10 06:21:58;;;;;;;7.68;3.22;;;28.30;77.20;;;;;;4200915;28;20563;-69
2021/11/10 06:24:03;;;;;;;5.32;3.22;;;28.20;76.60;;;;;;4200906;28;20049;-68
2021/11/10 06:26:07;;;;;;;5.15;3.72;;;28.30;78.00;;;;;;4182027;28;20036;-70
2021/11/10 06:28:12;;;;;;;6.07;3.47;;;28.30;77.40;;;;;;4191036;28;20256;-70
2021/11/10 06:30:16;;;;;;;13.25;3.35;;;28.30;77.30;;;;;;4200229;28;20059;-70
2021/11/10 06:32:21;;;;;;;5.95;3.38;;;28.30;77.80;;;;;;4199145;28;20090;-70
2021/11/10 06:34:29;;;;;;;11.40;3.58;;;28.40;76.90;;;;;;4201538;28;20043;-70
2021/11/10 06:36:33;;;;;;;6.00;3.38;;;28.30;77.40;;;;;;4197631;28;20442;-69
2021/11/10 06:38:38;;;;;;;6.78;3.30;;;28.40;77.20;;;;;;4192614;28;20119;-70
2021/11/10 06:40:43;;;;;;;8.20;3.33;;;28.40;77.70;;;;;;4184259;28;20047;-69
2021/11/10 06:42:47;;;;;;;10.07;3.83;;;28.50;78.00;;;;;;4181726;28;20039;-69
2021/11/10 06:44:55;;;;;;;6.47;3.92;;;28.40;76.60;;;;;;4198951;28;20044;-69
2021/11/10 06:47:00;;;;;;;8.35;3.67;;;28.40;77.40;;;;;;4195954;28;20471;-69
2021/11/10 06:49:05;;;;;;;7.07;3.58;;;28.50;77.20;;;;;;4194838;28;20566;-70
2021/11/10 06:51:14;;;;;;;8.13;3.63;;;28.40;77.20;;;;;;4198688;28;20045;-70
2021/11/10 06:53:18;;;;;;;7.30;3.60;;;28.50;77.80;;;;;;4198162;28;20419;-69
2021/11/10 06:55:23;;;;;;;9.48;3.78;;;28.50;78.00;;;;;;4199347;28;20070;-69
2021/11/10 06:57:28;;;;;;;10.50;3.78;;;28.60;77.80;;;;;;4189106;28;20556;-70
2021/11/10 06:59:32;;;;;;;5.47;3.65;;;28.60;77.50;;;;;;4195553;28;20057;-69
2021/11/10 07:01:40;;;;;;;9.18;3.33;;;28.50;76.90;;;;;;4198240;28;20048;-68
2021/11/10 07:03:44;;;;;;;16.60;3.75;;;28.50;76.90;;;;;;4180816;28;20456;-69
2021/11/10 07:05:49;;;;;;;6.07;3.70;;;28.50;76.90;;;;;;4197708;28;20607;-69
2021/11/10 07:07:54;;;;;;;7.65;3.35;;;28.40;77.10;;;;;;4189590;28;20040;-69
2021/11/10 07:09:59;;;;;;;8.73;3.67;;;28.50;77.70;;;;;;4198240;28;20102;-68
2021/11/10 07:12:04;;;;;;;6.60;3.80;;;28.40;77.40;;;;;;4181420;28;20546;-68
2021/11/10 07:14:09;;;;;;;10.23;4.00;;;28.50;77.50;;;;;;4198744;28;20526;-69
2021/11/10 07:16:13;;;;;;;7.45;3.30;;;28.50;77.60;;;;;;4199644;28;20127;-68
2021/11/10 07:18:18;;;;;;;7.05;3.40;;;28.60;76.70;;;;;;4195576;28;20075;-68
2021/11/10 07:20:23;;;;;;;7.18;3.72;;;28.50;76.60;;;;;;4197298;28;20563;-69
2021/11/10 07:22:27;;;;;;;4.70;3.17;;;28.60;76.80;;;;;;4199381;28;20682;-67
2021/11/10 07:24:32;;;;;;;7.80;3.60;;;28.50;76.70;;;;;;4198371;28;20048;-69
2021/11/10 07:26:37;;;;;;;7.88;4.57;;;28.60;76.80;;;;;;4195064;28;20455;-68
2021/11/10 07:28:41;;;;;;;6.43;3.42;;;28.50;76.20;;;;;;4189670;28;20045;-68
2021/11/10 07:30:46;;;;;;;7.53;3.75;;;28.50;77.00;;;;;;4201117;28;20048;-68
2021/11/10 07:32:51;;;;;;;9.43;3.70;;;28.60;77.70;;;;;;4180945;28;20205;-68
2021/11/10 07:34:55;;;;;;;9.60;3.80;;;28.70;77.40;;;;;;4201043;28;20373;-68
2021/11/10 07:37:00;;;;;;;6.55;3.55;;;28.60;77.00;;;;;;4192568;28;20056;-68
2021/11/10 07:39:06;;;;;;;5.82;3.17;;;28.70;77.40;;;;;;4195895;28;20558;-69
2021/11/10 07:41:16;;;;;;;9.20;3.85;;;28.60;76.80;;;;;;4199834;28;20114;-69
2021/11/10 07:43:23;;;;;;;8.30;3.60;;;28.60;77.00;;;;;;4178037;28;20573;-69
2021/11/10 07:45:35;;;;;;;6.50;3.30;;;28.60;77.40;;;;;;4185310;28;20036;-69
2021/11/10 07:47:45;;;;;;;11.75;3.50;;;28.70;76.90;;;;;;4193715;28;20059;-70
2021/11/10 07:49:52;;;;;;;5.72;3.38;;;28.70;76.80;;;;;;4202122;28;20196;-69
2021/11/10 07:51:59;;;;;;;6.15;3.28;;;28.70;77.00;;;;;;4200444;28;20091;-70
2021/11/10 07:54:03;;;;;;;7.15;3.70;;;28.70;76.50;;;;;;4199809;28;20071;-70
2021/11/10 07:56:07;;;;;;;4.97;3.25;;;28.70;77.30;;;;;;4201639;28;20044;-69
2021/11/10 07:58:12;;;;;;;7.93;3.42;;;28.70;77.70;;;;;;4201526;28;20106;-69
2021/11/10 08:00:18;;;;;;;6.03;3.50;;;28.70;77.00;;;;;;4201331;28;20184;-68
2021/11/10 08:02:22;;;;;;;6.55;3.25;;;28.70;76.80;;;;;;4200917;28;20060;-67
2021/11/10 08:04:27;;;;;;;8.52;3.50;;;28.70;77.00;;;;;;4202944;28;20449;-68
2021/11/10 08:06:32;;;;;;;6.85;3.65;;;28.70;77.20;;;;;;4206242;28;20050;-68
2021/11/10 08:08:37;;;;;;;9.90;4.00;;;28.70;77.60;;;;;;4186775;28;20136;-68
2021/11/10 08:10:43;;;;;;;7.63;3.90;;;28.80;77.50;;;;;;4203311;28;20048;-68
2021/11/10 08:12:48;;;;;;;5.07;3.38;;;28.80;77.90;;;;;;4205858;28;20130;-68
2021/11/10 08:14:56;;;;;;;9.77;4.40;;;28.70;77.30;;;;;;4203646;28;20049;-68
2021/11/10 08:17:00;;;;;;;10.88;3.85;;;28.60;77.60;;;;;;4202361;28;20063;-68
2021/11/10 08:19:05;;;;;;;6.05;3.35;;;28.70;77.40;;;;;;4187038;28;20037;-68
2021/11/10 08:21:10;;;;;;;6.47;3.58;;;28.60;77.50;;;;;;4204235;28;20498;-68
2021/11/10 08:23:20;;;;;;;5.90;3.85;;;28.60;77.90;;;;;;4203377;28;20442;-68
2021/11/10 08:25:24;;;;;;;7.63;3.97;;;28.60;78.20;;;;;;4200966;28;20043;-68
2021/11/10 08:27:28;;;;;;;8.85;3.58;;;28.60;78.10;;;;;;4203821;28;20536;-69
2021/11/10 08:29:33;;;;;;;4.85;3.83;;;28.70;78.10;;;;;;4204888;28;20102;-68
2021/11/10 08:31:38;;;;;;;8.32;4.50;;;28.60;78.40;;;;;;4204832;28;20037;-68
2021/11/10 08:33:42;;;;;;;7.60;3.97;;;28.70;78.70;;;;;;4201702;28;20403;-68
2021/11/10 08:35:47;;;;;;;6.68;3.97;;;28.70;78.50;;;;;;4201259;28;20043;-68
2021/11/10 08:37:52;;;;;;;6.38;3.80;;;28.60;78.00;;;;;;4197914;28;20086;-67
2021/11/10 08:39:56;;;;;;;8.50;4.10;;;28.50;78.20;;;;;;4204468;28;20106;-69
2021/11/10 08:42:03;;;;;;;8.85;3.60;;;28.50;78.30;;;;;;4196645;28;20055;-68
2021/11/10 08:44:07;;;;;;;5.93;3.63;;;28.50;78.50;;;;;;4187260;28;20384;-68
2021/11/10 08:46:12;;;;;;;7.50;3.95;;;28.50;78.50;;;;;;4202058;28;20043;-69
2021/11/10 08:48:18;;;;;;;7.40;4.25;;;28.50;78.50;;;;;;4202559;28;20048;-69
2021/11/10 08:50:22;;;;;;;8.75;4.63;;;28.50;78.60;;;;;;4187442;28;20055;-69
2021/11/10 08:52:28;;;;;;;7.63;4.40;;;28.60;78.60;;;;;;4169108;28;20045;-68
2021/11/10 08:54:33;;;;;;;8.98;4.00;;;28.60;77.80;;;;;;4203020;28;20510;-68
2021/11/10 08:56:37;;;;;;;7.00;4.40;;;28.60;78.40;;;;;;4200569;28;20044;-68
2021/11/10 08:58:43;;;;;;;6.60;3.90;;;28.60;78.30;;;;;;4203407;28;20040;-69
2021/11/10 09:00:48;;;;;;;9.35;4.10;;;28.50;77.70;;;;;;4201531;28;20060;-69
2021/11/10 09:02:53;;;;;;;8.80;4.97;;;28.50;78.10;;;;;;4198370;28;20048;-70
2021/11/10 09:04:59;;;;;;;12.60;4.93;;;28.50;78.30;;;;;;4185463;28;20068;-70
2021/11/10 09:07:04;;;;;;;8.70;4.30;;;28.50;78.60;;;;;;4204484;28;20126;-69
2021/11/10 09:09:09;;;;;;;8.40;4.43;;;28.50;78.10;;;;;;4182057;28;20033;-68
2021/11/10 09:11:15;;;;;;;9.30;4.40;;;28.40;78.20;;;;;;4185261;28;20041;-69
2021/11/10 09:13:19;;;;;;;11.02;4.72;;;28.30;78.70;;;;;;4202199;28;20063;-69
2021/11/10 09:15:24;;;;;;;8.27;4.93;;;28.40;78.80;;;;;;4196861;28;20079;-68
2021/11/10 09:17:34;;;;;;;14.13;6.35;;;28.40;79.00;;;;;;4198341;28;20105;-68
2021/11/10 09:19:39;;;;;;;12.98;6.30;;;28.40;79.70;;;;;;4197146;28;20131;-67
2021/11/10 09:22:03;;;;;;;9.70;5.85;;;28.50;79.70;;;;;;4184171;28;20138;-67
2021/11/10 09:24:26;;;;;;;13.20;6.65;;;28.50;79.80;;;;;;4196913;28;20434;-68
2021/11/10 09:26:30;;;;;;;11.15;6.93;;;28.50;80.70;;;;;;4183743;28;20052;-67
2021/11/10 09:28:36;;;;;;;13.02;6.57;;;28.50;80.10;;;;;;4180437;28;20047;-67
2021/11/10 09:30:41;;;;;;;11.98;6.95;;;28.50;80.30;;;;;;4179907;28;20476;-68
2021/11/10 09:33:03;;;;;;;16.40;6.07;;;28.50;80.00;;;;;;4186845;28;20048;-68
2021/11/10 09:35:10;;;;;;;10.55;5.50;;;28.40;79.80;;;;;;4201390;28;20428;-70
2021/11/10 09:37:15;;;;;;;10.68;4.38;;;28.40;80.10;;;;;;4199422;28;20047;-69
2021/11/10 09:39:22;;;;;;;7.65;4.35;;;28.40;79.80;;;;;;4204160;28;20054;-69
2021/11/10 09:41:26;;;;;;;7.90;4.65;;;28.30;79.80;;;;;;4206058;28;20274;-69
2021/11/10 09:43:36;;;;;;;11.73;4.90;;;28.30;79.80;;;;;;4201010;28;20048;-69
2021/11/10 09:45:41;;;;;;;12.23;4.50;;;28.30;80.00;;;;;;4198948;28;20041;-70
2021/11/10 09:47:46;;;;;;;14.13;5.20;;;28.30;80.20;;;;;;4201652;28;20135;-69
2021/11/10 09:49:51;;;;;;;6.53;4.45;;;28.30;80.20;;;;;;4205186;28;20044;-69
2021/11/10 09:51:56;;;;;;;12.27;4.55;;;28.20;80.30;;;;;;4204576;28;20044;-69
2021/11/10 09:54:01;;;;;;;10.82;4.60;;;28.20;80.60;;;;;;4202007;28;20087;-68
2021/11/10 09:56:06;;;;;;;7.25;4.63;;;28.20;80.80;;;;;;4185068;28;20091;-68
2021/11/10 09:58:11;;;;;;;7.78;4.78;;;28.20;80.90;;;;;;4182257;28;20040;-69
2021/11/10 10:00:19;;;;;;;12.18;5.30;;;28.30;81.00;;;;;;4202262;28;20514;-68
2021/11/10 10:02:24;;;;;;;8.85;5.15;;;28.20;81.10;;;;;;4199907;28;20055;-68
2021/11/10 10:04:31;;;;;;;9.23;4.55;;;28.20;81.20;;;;;;4187124;28;20491;-68
2021/11/10 10:06:38;;;;;;;6.40;4.50;;;28.20;81.40;;;;;;4200307;28;20048;-68
2021/11/10 10:08:48;;;;;;;11.45;4.90;;;28.10;81.80;;;;;;4200924;28;20044;-67
2021/11/10 10:10:55;;;;;;;13.15;5.05;;;28.10;82.10;;;;;;4183396;28;20125;-66
2021/11/10 10:13:01;;;;;;;9.60;4.90;;;28.10;82.50;;;;;;4199165;28;20072;-67
2021/11/10 10:15:09;;;;;;;8.07;4.90;;;28.10;82.50;;;;;;4149429;28;20065;-67
2021/11/10 10:17:33;;;;;;;8.27;5.00;;;28.10;82.70;;;;;;4202008;28;20051;-67
2021/11/10 10:19:40;;;;;;;7.93;4.63;;;28.00;82.30;;;;;;4202891;28;20392;-67
2021/11/10 10:21:59;;;;;;;9.25;5.00;;;28.00;82.20;;;;;;4197156;28;20052;-67
2021/11/10 10:24:06;;;;;;;11.57;5.18;;;28.00;82.50;;;;;;4164867;28;20166;-67
2021/11/10 10:26:20;;;;;;;11.05;4.85;;;28.00;82.60;;;;;;4202334;28;20071;-67
2021/11/10 10:28:30;;;;;;;11.38;5.03;;;27.90;82.70;;;;;;4200595;28;20099;-68
2021/11/10 10:30:43;;;;;;;12.93;5.35;;;27.90;82.90;;;;;;4202082;28;20079;-68
2021/11/10 10:33:11;;;;;;;14.20;5.18;;;27.90;82.90;;;;;;4203010;28;20481;-66
2021/11/10 10:35:28;;;;;;;16.85;5.53;;;27.90;83.70;;;;;;4204517;28;20135;-68
2021/11/10 10:37:33;;;;;;;13.70;6.25;;;27.90;83.00;;;;;;4206962;28;20462;-69
2021/11/10 10:39:37;;;;;;;11.05;5.47;;;27.90;82.90;;;;;;4202752;28;20071;-68
2021/11/10 10:41:51;;;;;;;11.63;5.57;;;27.90;82.90;;;;;;4202368;28;20127;-68
2021/11/10 10:44:01;;;;;;;9.48;6.38;;;27.90;82.90;;;;;;4191212;28;20657;-68
2021/11/10 10:46:06;;;;;;;17.85;7.57;;;27.90;83.00;;;;;;4198472;28;20056;-69
2021/11/10 10:48:15;;;;;;;35.80;17.80;;;27.90;83.10;;;;;;4181358;28;20053;-69
2021/11/10 10:50:30;;;;;;;30.98;16.80;;;27.80;83.60;;;;;;4205446;28;20044;-69
2021/11/10 10:52:36;;;;;;;28.63;14.02;;;27.70;83.60;;;;;;4209746;28;20046;-69
2021/11/10 10:54:40;;;;;;;19.98;11.43;;;27.70;83.60;;;;;;4184849;28;20044;-69
2021/11/10 10:57:02;;;;;;;49.45;22.55;;;27.80;83.90;;;;;;4203666;28;20467;-69